createdAt,value
2018-02-03T00:00:51.261Z,1000.98
2018-02-03T00:01:51.276Z,1000.99
2018-02-03T00:02:51.291Z,1000.97
2018-02-03T00:03:51.310Z,1000.95
2018-02-03T00:04:51.321Z,1000.96
2018-02-03T00:05:51.337Z,1000.94
2018-02-03T00:06:51.352Z,1000.94
2018-02-03T00:07:51.367Z,1000.91
2018-02-03T00:08:51.383Z,1000.90
2018-02-03T00:09:51.399Z,1000.92
2018-02-03T00:10:51.413Z,1000.89
2018-02-03T00:11:51.429Z,1000.89
2018-02-03T00:12:51.445Z,1000.93
2018-02-03T00:13:51.462Z,1000.91
2018-02-03T00:14:51.474Z,1000.95
2018-02-03T00:15:51.490Z,1000.91
2018-02-03T00:16:51.506Z,1000.92
2018-02-03T00:17:51.520Z,1000.95
2018-02-03T00:18:51.536Z,1000.91
2018-02-03T00:19:51.550Z,1000.91
2018-02-03T00:20:51.567Z,1000.92
2018-02-03T00:21:51.582Z,1000.89
2018-02-03T00:22:51.597Z,1000.89
2018-02-03T00:23:51.613Z,1000.84
2018-02-03T00:24:51.628Z,1000.81
2018-02-03T00:25:51.647Z,1000.79
2018-02-03T00:26:51.660Z,1000.80
2018-02-03T00:27:51.674Z,1000.78
2018-02-03T00:28:51.690Z,1000.79
2018-02-03T00:29:51.705Z,1000.80
2018-02-03T00:30:51.720Z,1000.83
2018-02-03T00:31:51.736Z,1000.80
2018-02-03T00:32:51.756Z,1000.80
2018-02-03T00:33:51.767Z,1000.82
2018-02-03T00:34:51.782Z,1000.81
2018-02-03T00:35:51.797Z,1000.80
2018-02-03T00:36:51.812Z,1000.79
2018-02-03T00:37:51.827Z,1000.85
2018-02-03T00:38:51.842Z,1000.80
2018-02-03T00:39:51.861Z,1000.82
2018-02-03T00:40:51.874Z,1000.84
2018-02-03T00:41:51.890Z,1000.78
2018-02-03T00:42:51.904Z,1000.81
2018-02-03T00:43:51.920Z,1000.81
2018-02-03T00:44:51.936Z,1000.81
2018-02-03T00:45:51.951Z,1000.84
2018-02-03T00:46:51.966Z,1000.84
2018-02-03T00:47:51.981Z,1000.84
2018-02-03T00:48:51.996Z,1000.87
2018-02-03T00:49:52.012Z,1000.85
2018-02-03T00:50:52.027Z,1000.87
2018-02-03T00:51:52.042Z,1000.88
2018-02-03T00:52:52.106Z,1000.88
2018-02-03T00:53:52.072Z,1000.90
2018-02-03T00:54:52.088Z,1000.85
2018-02-03T00:55:52.104Z,1000.85
2018-02-03T00:56:52.119Z,1000.90
2018-02-03T00:57:52.134Z,1000.88
2018-02-03T00:58:52.250Z,1000.92
2018-02-03T00:59:52.164Z,1000.89
2018-02-03T01:00:52.180Z,1000.90
2018-02-03T01:01:52.196Z,1000.91
2018-02-03T01:02:52.211Z,1000.94
2018-02-03T01:03:52.229Z,1000.96
2018-02-03T01:04:52.243Z,1000.97
2018-02-03T01:05:52.257Z,1000.96
2018-02-03T01:06:52.272Z,1000.94
2018-02-03T01:07:52.288Z,1000.98
2018-02-03T01:08:52.303Z,1000.98
2018-02-03T01:09:52.319Z,1000.97
2018-02-03T01:10:52.334Z,1000.98
2018-02-03T01:11:52.349Z,1001.04
2018-02-03T01:12:52.364Z,1001.03
2018-02-03T01:13:52.380Z,1001.04
2018-02-03T01:14:52.394Z,1001.05
2018-02-03T01:15:52.410Z,1001.03
2018-02-03T01:16:52.426Z,1000.99
2018-02-03T01:17:52.442Z,1001.02
2018-02-03T01:18:52.456Z,1000.98
2018-02-03T01:19:52.472Z,1000.95
2018-02-03T01:20:52.488Z,1000.96
2018-02-03T01:21:52.506Z,1000.98
2018-02-03T01:22:52.521Z,1001.00
2018-02-03T01:23:52.534Z,1000.98
2018-02-03T01:24:52.548Z,1000.94
2018-02-03T01:25:52.565Z,1001.00
2018-02-03T01:26:52.578Z,1001.01
2018-02-03T01:27:52.595Z,1000.98
2018-02-03T01:28:52.610Z,1001.02
2018-02-03T01:29:52.626Z,1001.03
2018-02-03T01:30:52.640Z,1001.06
2018-02-03T01:31:52.656Z,1001.05
2018-02-03T01:32:52.671Z,1001.00
2018-02-03T01:33:52.690Z,1001.05
2018-02-03T01:34:52.702Z,1001.06
2018-02-03T01:35:52.717Z,1001.05
2018-02-03T01:36:52.737Z,1001.06
2018-02-03T01:37:52.748Z,1001.10
2018-02-03T01:38:52.763Z,1001.10
2018-02-03T01:39:52.778Z,1001.13
2018-02-03T01:40:52.794Z,1001.11
2018-02-03T01:41:52.809Z,1001.13
2018-02-03T01:42:52.823Z,1001.13
2018-02-03T01:43:52.839Z,1001.16
2018-02-03T01:44:52.854Z,1001.16
2018-02-03T01:45:52.870Z,1001.17
2018-02-03T01:46:52.884Z,1001.14
2018-02-03T01:47:52.900Z,1001.19
2018-02-03T01:48:52.915Z,1001.22
2018-02-03T01:49:52.931Z,1001.19
2018-02-03T01:50:52.946Z,1001.26
2018-02-03T01:51:52.962Z,1001.22
2018-02-03T01:52:52.976Z,1001.23
2018-02-03T01:53:52.991Z,1001.23
2018-02-03T01:54:53.006Z,1001.18
2018-02-03T01:55:53.021Z,1001.15
2018-02-03T01:56:53.036Z,1001.16
2018-02-03T01:57:53.052Z,1001.17
2018-02-03T01:58:53.066Z,1001.13
2018-02-03T01:59:53.081Z,1001.11
2018-02-03T02:00:53.096Z,1001.11
2018-02-03T02:01:53.112Z,1001.11
2018-02-03T02:02:53.127Z,1001.12
2018-02-03T02:03:53.142Z,1001.08
2018-02-03T02:04:53.157Z,1001.09
2018-02-03T02:05:53.174Z,1001.14
2018-02-03T02:06:53.187Z,1001.10
2018-02-03T02:07:53.203Z,1001.16
2018-02-03T02:08:53.218Z,1001.19
2018-02-03T02:09:53.233Z,1001.19
2018-02-03T02:10:53.247Z,1001.21
2018-02-03T02:11:53.262Z,1001.19
2018-02-03T02:12:53.278Z,1001.17
2018-02-03T02:13:53.294Z,1001.19
2018-02-03T02:14:53.308Z,1001.13
2018-02-03T02:15:53.323Z,1001.17
2018-02-03T02:16:53.338Z,1001.15
2018-02-03T02:17:53.353Z,1001.10
2018-02-03T02:18:53.368Z,1001.11
2018-02-03T02:19:53.533Z,1001.07
2018-02-03T02:20:53.398Z,1001.10
2018-02-03T02:21:53.414Z,1001.12
2018-02-03T02:22:53.429Z,1001.16
2018-02-03T02:23:53.443Z,1001.07
2018-02-03T02:24:53.468Z,1001.07
2018-02-03T02:25:53.474Z,1001.11
2018-02-03T02:26:53.488Z,1001.09
2018-02-03T02:27:53.504Z,1001.10
2018-02-03T02:28:53.518Z,1001.12
2018-02-03T02:29:53.533Z,1001.12
2018-02-03T02:30:53.548Z,1001.15
2018-02-03T02:31:53.563Z,1001.13
2018-02-03T02:32:53.578Z,1001.18
2018-02-03T02:33:53.594Z,1001.14
2018-02-03T02:34:53.607Z,1001.11
2018-02-03T02:35:53.674Z,1001.12
2018-02-03T02:36:53.640Z,1001.07
2018-02-03T02:37:53.653Z,1001.12
2018-02-03T02:38:53.667Z,1001.17
2018-02-03T02:39:53.833Z,1001.27
2018-02-03T02:40:53.699Z,1001.28
2018-02-03T02:41:53.712Z,1001.32
2018-02-03T02:42:53.726Z,1001.35
2018-02-03T02:43:53.745Z,1001.32
2018-02-03T02:44:53.757Z,1001.28
2018-02-03T02:45:53.772Z,1001.23
2018-02-03T02:46:53.787Z,1001.23
2018-02-03T02:47:53.801Z,1001.27
2018-02-03T02:48:53.818Z,1001.27
2018-02-03T02:49:53.832Z,1001.27
2018-02-03T02:50:53.846Z,1001.27
2018-02-03T02:51:53.861Z,1001.27
2018-02-03T02:52:53.876Z,1001.22
2018-02-03T02:53:53.892Z,1001.30
2018-02-03T02:54:53.906Z,1001.24
2018-02-03T02:55:53.920Z,1001.28
2018-02-03T02:56:53.936Z,1001.25
2018-02-03T02:57:53.951Z,1001.24
2018-02-03T02:58:53.965Z,1001.24
2018-02-03T02:59:53.980Z,1001.20
2018-02-03T03:00:53.995Z,1001.15
2018-02-03T03:01:54.010Z,1001.19
2018-02-03T03:02:54.028Z,1001.12
2018-02-03T03:03:54.045Z,1001.16
2018-02-03T03:04:54.055Z,1001.17
2018-02-03T03:05:54.070Z,1001.13
2018-02-03T03:06:54.085Z,1001.10
2018-02-03T03:07:54.098Z,1001.14
2018-02-03T03:08:54.114Z,1001.14
2018-02-03T03:09:54.129Z,1001.11
2018-02-03T03:10:54.144Z,1001.06
2018-02-03T03:11:54.159Z,1001.09
2018-02-03T03:12:54.174Z,1001.06
2018-02-03T03:13:54.190Z,1001.05
2018-02-03T03:14:54.204Z,1001.04
2018-02-03T03:15:54.219Z,1001.02
2018-02-03T03:16:54.234Z,1001.03
2018-02-03T03:17:54.250Z,1001.10
2018-02-03T03:18:54.264Z,1001.07
2018-02-03T03:19:54.279Z,1001.08
2018-02-03T03:20:54.294Z,1001.02
2018-02-03T03:21:54.310Z,1000.94
2018-02-03T03:22:54.323Z,1000.93
2018-02-03T03:23:54.338Z,1000.87
2018-02-03T03:24:54.354Z,1000.89
2018-02-03T03:25:54.369Z,1000.92
2018-02-03T03:26:54.384Z,1000.97
2018-02-03T03:27:54.399Z,1000.95
2018-02-03T03:28:54.416Z,1000.98
2018-02-03T03:29:54.429Z,1000.94
2018-02-03T03:30:54.444Z,1000.95
2018-02-03T03:31:54.609Z,1000.91
2018-02-03T03:32:54.475Z,1000.92
2018-02-03T03:33:54.489Z,1000.94
2018-02-03T03:34:54.504Z,1001.01
2018-02-03T03:35:54.518Z,1000.98
2018-02-03T03:36:54.534Z,1001.02
2018-02-03T03:37:54.550Z,1000.98
2018-02-03T03:38:54.567Z,1001.03
2018-02-03T03:39:54.579Z,1000.98
2018-02-03T03:40:54.594Z,1001.00
2018-02-03T03:41:54.609Z,1001.01
2018-02-03T03:42:54.623Z,1001.03
2018-02-03T03:43:54.640Z,1001.01
2018-02-03T03:44:54.656Z,1001.01
2018-02-03T03:45:54.669Z,1000.99
2018-02-03T03:46:54.684Z,1001.04
2018-02-03T03:47:54.699Z,1001.02
2018-02-03T03:48:54.767Z,1000.95
2018-02-03T03:49:54.729Z,1001.03
2018-02-03T03:50:54.743Z,1001.02
2018-02-03T03:51:54.759Z,1000.98
2018-02-03T03:52:54.777Z,1000.94
2018-02-03T03:53:54.790Z,1000.93
2018-02-03T03:54:54.804Z,1000.95
2018-02-03T03:55:54.819Z,1000.98
2018-02-03T03:56:54.834Z,1000.98
2018-02-03T03:57:54.850Z,1000.96
2018-02-03T03:58:54.863Z,1001.01
2018-02-03T03:59:54.879Z,1001.03
2018-02-03T04:00:54.897Z,1001.05
2018-02-03T04:01:54.909Z,1001.08
2018-02-03T04:02:54.924Z,1001.07
2018-02-03T04:03:54.938Z,1001.09
2018-02-03T04:04:54.954Z,1001.09
2018-02-03T04:05:54.969Z,1001.08
2018-02-03T04:06:54.983Z,1001.11
2018-02-03T04:07:54.999Z,1001.06
2018-02-03T04:08:55.014Z,1001.05
2018-02-03T04:09:55.029Z,1001.04
2018-02-03T04:10:55.043Z,1001.03
2018-02-03T04:11:55.058Z,1000.98
2018-02-03T04:12:55.073Z,1000.99
2018-02-03T04:13:55.088Z,1000.99
2018-02-03T04:14:55.102Z,1001.03
2018-02-03T04:15:55.116Z,1001.07
2018-02-03T04:16:55.133Z,1001.02
2018-02-03T04:17:55.148Z,1000.97
2018-02-03T04:18:55.165Z,1000.98
2018-02-03T04:19:55.178Z,1000.97
2018-02-03T04:20:55.192Z,1000.93
2018-02-03T04:21:55.207Z,1000.94
2018-02-03T04:22:55.221Z,1000.94
2018-02-03T04:23:55.236Z,1000.89
2018-02-03T04:24:55.251Z,1000.94
2018-02-03T04:25:55.317Z,1000.93
2018-02-03T04:26:55.281Z,1000.94
2018-02-03T04:27:55.296Z,1000.96
2018-02-03T04:28:55.311Z,1000.94
2018-02-03T04:29:55.326Z,1000.97
2018-02-03T04:30:55.343Z,1000.97
2018-02-03T04:31:55.506Z,1000.96
2018-02-03T04:32:55.371Z,1000.97
2018-02-03T04:33:55.386Z,1000.97
2018-02-03T04:34:55.400Z,1000.88
2018-02-03T04:35:55.415Z,1000.90
2018-02-03T04:36:55.429Z,1000.90
2018-02-03T04:37:55.445Z,1000.86
2018-02-03T04:38:55.459Z,1000.86
2018-02-03T04:39:55.474Z,1000.86
2018-02-03T04:40:55.491Z,1000.84
2018-02-03T04:41:55.505Z,1000.80
2018-02-03T04:42:55.518Z,1000.80
2018-02-03T04:43:55.533Z,1000.76
2018-02-03T04:44:55.549Z,1000.77
2018-02-03T04:45:55.564Z,1000.79
2018-02-03T04:46:55.584Z,1000.76
2018-02-03T04:47:55.594Z,1000.74
2018-02-03T04:48:55.609Z,1000.76
2018-02-03T04:49:55.624Z,1000.70
2018-02-03T04:50:55.637Z,1000.74
2018-02-03T04:51:55.654Z,1000.69
2018-02-03T04:52:55.669Z,1000.71
2018-02-03T04:53:55.689Z,1000.70
2018-02-03T04:54:55.699Z,1000.69
2018-02-03T04:55:55.713Z,1000.66
2018-02-03T04:56:55.729Z,1000.71
2018-02-03T04:57:55.743Z,1000.69
2018-02-03T04:58:55.758Z,1000.65
2018-02-03T04:59:55.773Z,1000.62
2018-02-03T05:00:55.788Z,1000.61
2018-02-03T05:01:55.804Z,1000.62
2018-02-03T05:02:55.818Z,1000.59
2018-02-03T05:03:55.833Z,1000.54
2018-02-03T05:04:55.848Z,1000.56
2018-02-03T05:05:55.864Z,1000.61
2018-02-03T05:06:55.881Z,1000.62
2018-02-03T05:07:55.894Z,1000.59
2018-02-03T05:08:55.909Z,1000.62
2018-02-03T05:09:55.929Z,1000.54
2018-02-03T05:10:55.938Z,1000.59
2018-02-03T05:11:55.953Z,1000.57
2018-02-03T05:12:55.969Z,1000.60
2018-02-03T05:13:55.983Z,1000.57
2018-02-03T05:14:55.998Z,1000.56
2018-02-03T05:15:56.013Z,1000.55
2018-02-03T05:16:56.032Z,1000.63
2018-02-03T05:17:56.044Z,1000.64
2018-02-03T05:18:56.058Z,1000.58
2018-02-03T05:19:56.073Z,1000.63
2018-02-03T05:20:56.089Z,1000.62
2018-02-03T05:21:56.103Z,1000.61
2018-02-03T05:22:56.118Z,1000.59
2018-02-03T05:23:56.133Z,1000.60
2018-02-03T05:24:56.148Z,1000.57
2018-02-03T05:25:56.163Z,1000.54
2018-02-03T05:26:56.178Z,1000.53
2018-02-03T05:27:56.256Z,1000.57
2018-02-03T05:28:56.208Z,1000.55
2018-02-03T05:29:56.233Z,1000.54
2018-02-03T05:30:56.238Z,1000.55
2018-02-03T05:31:56.252Z,1000.51
2018-02-03T05:32:56.268Z,1000.53
2018-02-03T05:33:56.283Z,1000.52
2018-02-03T05:34:56.297Z,1000.53
2018-02-03T05:35:56.312Z,1000.51
2018-02-03T05:36:56.328Z,1000.51
2018-02-03T05:37:56.343Z,1000.47
2018-02-03T05:38:56.357Z,1000.50
2018-02-03T05:39:56.372Z,1000.53
2018-02-03T05:40:56.388Z,1000.51
2018-02-03T05:41:56.403Z,1000.48
2018-02-03T05:42:56.417Z,1000.46
2018-02-03T05:43:56.433Z,1000.51
2018-02-03T05:44:56.448Z,1000.49
2018-02-03T05:45:56.463Z,1000.49
2018-02-03T05:46:56.477Z,1000.51
2018-02-03T05:47:56.492Z,1000.49
2018-02-03T05:48:56.507Z,1000.48
2018-02-03T05:49:56.523Z,1000.47
2018-02-03T05:50:56.537Z,1000.47
2018-02-03T05:51:56.703Z,1000.46
2018-02-03T05:52:56.568Z,1000.44
2018-02-03T05:53:56.584Z,1000.43
2018-02-03T05:54:56.597Z,1000.41
2018-02-03T05:55:56.613Z,1000.37
2018-02-03T05:56:56.628Z,1000.38
2018-02-03T05:57:56.642Z,1000.31
2018-02-03T05:58:56.658Z,1000.32
2018-02-03T05:59:56.673Z,1000.31
2018-02-03T06:00:56.688Z,1000.30
2018-02-03T06:01:56.704Z,1000.35
2018-02-03T06:02:56.718Z,1000.31
2018-02-03T06:03:56.733Z,1000.31
2018-02-03T06:04:56.800Z,1000.29
2018-02-03T06:05:56.763Z,1000.27
2018-02-03T06:06:56.833Z,1000.32
2018-02-03T06:07:56.793Z,1000.35
2018-02-03T06:08:56.959Z,1000.33
2018-02-03T06:09:56.824Z,1000.37
2018-02-03T06:10:56.838Z,1000.38
2018-02-03T06:11:56.853Z,1000.37
2018-02-03T06:12:56.867Z,1000.38
2018-02-03T06:13:56.884Z,1000.43
2018-02-03T06:14:56.900Z,1000.40
2018-02-03T06:15:56.912Z,1000.41
2018-02-03T06:16:56.927Z,1000.39
2018-02-03T06:17:56.942Z,1000.42
2018-02-03T06:18:56.956Z,1000.41
2018-02-03T06:19:56.971Z,1000.42
2018-02-03T06:20:56.987Z,1000.44
2018-02-03T06:21:57.002Z,1000.42
2018-02-03T06:22:57.017Z,1000.43
2018-02-03T06:23:57.031Z,1000.42
2018-02-03T06:24:57.046Z,1000.40
2018-02-03T06:25:57.061Z,1000.42
2018-02-03T06:26:57.075Z,1000.43
2018-02-03T06:27:57.090Z,1000.37
2018-02-03T06:28:57.105Z,1000.33
2018-02-03T06:29:57.120Z,1000.29
2018-02-03T06:30:57.134Z,1000.26
2018-02-03T06:31:57.149Z,1000.34
2018-02-03T06:32:57.164Z,1000.36
2018-02-03T06:33:57.180Z,1000.41
2018-02-03T06:34:57.194Z,1000.41
2018-02-03T06:35:57.209Z,1000.43
2018-02-03T06:36:57.224Z,1000.42
2018-02-03T06:37:57.238Z,1000.43
2018-02-03T06:38:57.253Z,1000.47
2018-02-03T06:39:57.268Z,1000.42
2018-02-03T06:40:57.282Z,1000.45
2018-02-03T06:41:57.298Z,1000.47
2018-02-03T06:42:57.312Z,1000.48
2018-02-03T06:43:57.326Z,1000.49
2018-02-03T06:44:57.347Z,1000.44
2018-02-03T06:45:57.357Z,1000.43
2018-02-03T06:46:57.371Z,1000.39
2018-02-03T06:47:57.386Z,1000.37
2018-02-03T06:48:57.401Z,1000.41
2018-02-03T06:49:57.419Z,1000.40
2018-02-03T06:50:57.430Z,1000.41
2018-02-03T06:51:57.445Z,1000.41
2018-02-03T06:52:57.460Z,1000.43
2018-02-03T06:53:57.475Z,1000.43
2018-02-03T06:54:57.489Z,1000.44
2018-02-03T06:55:57.504Z,1000.46
2018-02-03T06:56:57.519Z,1000.43
2018-02-03T06:57:57.685Z,1000.39
2018-02-03T06:58:57.548Z,1000.44
2018-02-03T06:59:57.564Z,1000.42
2018-02-03T07:00:57.579Z,1000.48
2018-02-03T07:01:57.594Z,1000.44
2018-02-03T07:02:57.608Z,1000.42
2018-02-03T07:03:57.623Z,1000.44
2018-02-03T07:04:57.639Z,1000.45
2018-02-03T07:05:57.653Z,1000.41
2018-02-03T07:06:57.668Z,1000.40
2018-02-03T07:07:57.683Z,1000.41
2018-02-03T07:08:57.698Z,1000.42
2018-02-03T07:09:57.718Z,1000.39
2018-02-03T07:10:57.728Z,1000.38
2018-02-03T07:11:57.743Z,1000.39
2018-02-03T07:12:57.758Z,1000.39
2018-02-03T07:13:57.773Z,1000.38
2018-02-03T07:14:57.788Z,1000.39
2018-02-03T07:15:57.803Z,1000.40
2018-02-03T07:16:57.819Z,1000.42
2018-02-03T07:17:57.834Z,1000.38
2018-02-03T07:18:57.849Z,1000.38
2018-02-03T07:19:57.865Z,1000.33
2018-02-03T07:20:57.879Z,1000.36
2018-02-03T07:21:58.044Z,1000.37
2018-02-03T07:22:57.908Z,1000.40
2018-02-03T07:23:57.924Z,1000.41
2018-02-03T07:24:57.939Z,1000.42
2018-02-03T07:25:57.955Z,1000.42
2018-02-03T07:26:57.967Z,1000.40
2018-02-03T07:27:57.984Z,1000.40
2018-02-03T07:28:57.999Z,1000.38
2018-02-03T07:29:58.016Z,1000.45
2018-02-03T07:30:58.030Z,1000.45
2018-02-03T07:31:58.045Z,1000.45
2018-02-03T07:32:58.061Z,1000.45
2018-02-03T07:33:58.076Z,1000.48
2018-02-03T07:34:58.191Z,1000.50
2018-02-03T07:35:58.106Z,1000.49
2018-02-03T07:36:58.122Z,1000.50
2018-02-03T07:37:58.137Z,1000.52
2018-02-03T07:38:58.150Z,1000.48
2018-02-03T07:39:58.167Z,1000.51
2018-02-03T07:40:58.182Z,1000.48
2018-02-03T07:41:58.198Z,1000.48
2018-02-03T07:42:58.212Z,1000.49
2018-02-03T07:43:58.228Z,1000.46
2018-02-03T07:44:58.243Z,1000.46
2018-02-03T07:45:58.259Z,1000.44
2018-02-03T07:46:58.273Z,1000.46
2018-02-03T07:47:58.288Z,1000.43
2018-02-03T07:48:58.304Z,1000.47
2018-02-03T07:49:58.320Z,1000.40
2018-02-03T07:50:58.333Z,1000.41
2018-02-03T07:51:58.397Z,1000.35
2018-02-03T07:52:58.365Z,1000.37
2018-02-03T07:53:58.380Z,1000.37
2018-02-03T07:54:58.395Z,1000.35
2018-02-03T07:55:58.417Z,1000.33
2018-02-03T07:56:58.430Z,1000.34
2018-02-03T07:57:58.441Z,1000.31
2018-02-03T07:58:58.456Z,1000.31
2018-02-03T07:59:58.471Z,1000.34
2018-02-03T08:00:58.489Z,1000.34
2018-02-03T08:01:58.501Z,1000.33
2018-02-03T08:02:58.539Z,1000.33
2018-02-03T08:03:58.539Z,1000.34
2018-02-03T08:04:58.548Z,1000.34
2018-02-03T08:05:58.566Z,1000.31
2018-02-03T08:06:58.579Z,1000.34
2018-02-03T08:07:58.597Z,1000.34
2018-02-03T08:08:58.610Z,1000.31
2018-02-03T08:09:58.628Z,1000.29
2018-02-03T08:10:58.639Z,1000.34
2018-02-03T08:11:58.656Z,1000.36
2018-02-03T08:12:58.671Z,1000.38
2018-02-03T08:13:58.687Z,1000.38
2018-02-03T08:14:58.703Z,1000.33
2018-02-03T08:15:58.717Z,1000.32
2018-02-03T08:16:58.733Z,1000.29
2018-02-03T08:17:58.749Z,1000.34
2018-02-03T08:18:58.769Z,1000.34
2018-02-03T08:19:58.779Z,1000.32
2018-02-03T08:20:58.794Z,1000.35
2018-02-03T08:21:58.811Z,1000.33
2018-02-03T08:22:58.825Z,1000.31
2018-02-03T08:23:58.841Z,1000.31
2018-02-03T08:24:58.857Z,1000.35
2018-02-03T08:25:58.873Z,1000.35
2018-02-03T08:26:58.887Z,1000.35
2018-02-03T08:27:58.903Z,1000.37
2018-02-03T08:28:58.926Z,1000.35
2018-02-03T08:29:58.935Z,1000.35
2018-02-03T08:30:58.950Z,1000.37
2018-02-03T08:31:58.968Z,1000.31
2018-02-03T08:32:58.981Z,1000.36
2018-02-03T08:33:58.997Z,1000.32
2018-02-03T08:34:59.012Z,1000.32
2018-02-03T08:35:59.027Z,1000.35
2018-02-03T08:36:59.043Z,1000.34
2018-02-03T08:37:59.058Z,1000.31
2018-02-03T08:38:59.073Z,1000.30
2018-02-03T08:39:59.089Z,1000.29
2018-02-03T08:40:59.105Z,1000.30
2018-02-03T08:41:59.120Z,1000.28
2018-02-03T08:42:59.136Z,1000.25
2018-02-03T08:43:59.151Z,1000.26
2018-02-03T08:44:59.167Z,1000.26
2018-02-03T08:45:59.181Z,1000.22
2018-02-03T08:46:59.199Z,1000.20
2018-02-03T08:47:59.214Z,1000.23
2018-02-03T08:48:59.230Z,1000.20
2018-02-03T08:49:59.244Z,1000.19
2018-02-03T08:50:59.258Z,1000.20
2018-02-03T08:51:59.275Z,1000.21
2018-02-03T08:52:59.291Z,1000.21
2018-02-03T08:53:59.307Z,1000.23
2018-02-03T08:54:59.322Z,1000.24
2018-02-03T08:55:59.336Z,1000.24
2018-02-03T08:56:59.354Z,1000.25
2018-02-03T08:57:59.369Z,1000.26
2018-02-03T08:58:59.384Z,1000.28
2018-02-03T08:59:59.400Z,1000.27
2018-02-03T09:00:59.416Z,1000.31
2018-02-03T09:01:59.431Z,1000.28
2018-02-03T09:02:59.446Z,1000.26
2018-02-03T09:03:59.464Z,1000.25
2018-02-03T09:04:59.478Z,1000.24
2018-02-03T09:05:59.493Z,1000.23
2018-02-03T09:06:59.508Z,1000.23
2018-02-03T09:07:59.524Z,1000.20
2018-02-03T09:08:59.540Z,1000.19
2018-02-03T09:09:59.555Z,1000.18
2018-02-03T09:10:59.570Z,1000.21
2018-02-03T09:11:59.585Z,1000.21
2018-02-03T09:12:59.602Z,1000.22
2018-02-03T09:13:59.617Z,1000.23
2018-02-03T09:14:59.631Z,1000.23
2018-02-03T09:15:59.677Z,1000.22
2018-02-03T09:16:59.663Z,1000.23
2018-02-03T09:17:59.679Z,1000.24
2018-02-03T09:18:59.700Z,1000.27
2018-02-03T09:19:59.709Z,1000.26
2018-02-03T09:20:59.725Z,1000.30
2018-02-03T09:21:59.741Z,1000.28
2018-02-03T09:22:59.756Z,1000.29
2018-02-03T09:23:59.771Z,1000.27
2018-02-03T09:24:59.788Z,1000.28
2018-02-03T09:25:59.804Z,1000.28
2018-02-03T09:26:59.818Z,1000.30
2018-02-03T09:27:59.836Z,1000.31
2018-02-03T09:28:59.853Z,1000.34
2018-02-03T09:29:59.867Z,1000.28
2018-02-03T09:30:59.882Z,1000.30
2018-02-03T09:31:59.898Z,1000.32
2018-02-03T09:32:59.914Z,1000.31
2018-02-03T09:33:59.930Z,1000.28
2018-02-03T09:34:59.947Z,1000.31
2018-02-03T09:35:59.961Z,1000.27
2018-02-03T09:36:59.976Z,1000.26
2018-02-03T09:37:59.993Z,1000.26
2018-02-03T09:39:00.009Z,1000.22
2018-02-03T09:40:00.043Z,1000.24
2018-02-03T09:41:00.041Z,1000.18
2018-02-03T09:42:00.057Z,1000.20
2018-02-03T09:43:00.073Z,1000.18
2018-02-03T09:44:00.088Z,1000.14
2018-02-03T09:45:00.104Z,1000.19
2018-02-03T09:46:00.120Z,1000.17
2018-02-03T09:47:00.136Z,1000.19
2018-02-03T09:48:00.151Z,1000.17
2018-02-03T09:49:00.172Z,1000.22
2018-02-03T09:50:00.183Z,1000.24
2018-02-03T09:51:00.199Z,1000.17
2018-02-03T09:52:00.215Z,1000.13
2018-02-03T09:53:00.231Z,1000.14
2018-02-03T09:54:00.247Z,1000.11
2018-02-03T09:55:00.261Z,1000.13
2018-02-03T09:56:00.278Z,1000.13
2018-02-03T09:57:00.294Z,1000.11
2018-02-03T09:58:00.313Z,1000.10
2018-02-03T09:59:00.325Z,1000.10
2018-02-03T10:00:00.342Z,1000.09
2018-02-03T10:01:00.357Z,1000.15
2018-02-03T10:02:00.423Z,1000.10
2018-02-03T10:03:00.389Z,1000.17
2018-02-03T10:04:00.405Z,1000.22
2018-02-03T10:05:00.421Z,1000.22
2018-02-03T10:06:00.438Z,1000.23
2018-02-03T10:07:00.452Z,1000.21
2018-02-03T10:08:00.469Z,1000.17
2018-02-03T10:09:00.486Z,1000.19
2018-02-03T10:10:00.651Z,1000.21
2018-02-03T10:11:00.517Z,1000.23
2018-02-03T10:12:00.533Z,1000.24
2018-02-03T10:13:00.550Z,1000.25
2018-02-03T10:14:00.566Z,1000.24
2018-02-03T10:15:00.582Z,1000.29
2018-02-03T10:16:00.598Z,1000.24
2018-02-03T10:17:00.615Z,1000.29
2018-02-03T10:18:00.631Z,1000.25
2018-02-03T10:19:00.647Z,1000.26
2018-02-03T10:20:00.663Z,1000.25
2018-02-03T10:21:00.679Z,1000.22
2018-02-03T10:22:00.696Z,1000.23
2018-02-03T10:23:00.711Z,1000.21
2018-02-03T10:24:00.727Z,1000.19
2018-02-03T10:25:00.744Z,1000.23
2018-02-03T10:26:00.760Z,1000.18
2018-02-03T10:27:00.776Z,1000.22
2018-02-03T10:28:00.792Z,1000.17
2018-02-03T10:29:00.809Z,1000.19
2018-02-03T10:30:00.826Z,1000.18
2018-02-03T10:31:00.841Z,1000.10
2018-02-03T10:32:00.858Z,1000.13
2018-02-03T10:33:00.875Z,1000.20
2018-02-03T10:34:00.892Z,1000.14
2018-02-03T10:35:00.907Z,1000.16
2018-02-03T10:36:00.924Z,1000.16
2018-02-03T10:37:00.940Z,1000.09
2018-02-03T10:38:00.956Z,1000.12
2018-02-03T10:39:00.977Z,1000.13
2018-02-03T10:40:00.989Z,1000.12
2018-02-03T10:41:01.006Z,1000.12
2018-02-03T10:42:01.022Z,1000.13
2018-02-03T10:43:01.038Z,1000.13
2018-02-03T10:44:01.054Z,1000.15
2018-02-03T10:45:01.071Z,1000.16
2018-02-03T10:46:01.087Z,1000.11
2018-02-03T10:47:01.103Z,1000.06
2018-02-03T10:48:01.119Z,1000.09
2018-02-03T10:49:01.140Z,1000.07
2018-02-03T10:50:01.154Z,1000.06
2018-02-03T10:51:01.170Z,1000.01
2018-02-03T10:52:01.186Z,1000.01
2018-02-03T10:53:01.203Z,1000.00
2018-02-03T10:54:01.219Z,999.99
2018-02-03T10:55:01.235Z,1000.00
2018-02-03T10:56:01.251Z,1000.00
2018-02-03T10:57:01.268Z,999.95
2018-02-03T10:58:01.306Z,999.96
2018-02-03T10:59:01.301Z,999.95
2018-02-03T11:00:01.317Z,999.96
2018-02-03T11:01:01.336Z,999.94
2018-02-03T11:02:01.350Z,999.92
2018-02-03T11:03:01.366Z,999.92
2018-02-03T11:04:01.383Z,999.92
2018-02-03T11:05:01.398Z,999.92
2018-02-03T11:06:01.416Z,999.91
2018-02-03T11:07:01.448Z,999.93
2018-02-03T11:08:01.454Z,999.91
2018-02-03T11:09:01.465Z,999.87
2018-02-03T11:10:01.483Z,999.89
2018-02-03T11:11:01.498Z,999.88
2018-02-03T11:12:01.514Z,999.85
2018-02-03T11:13:01.534Z,999.86
2018-02-03T11:14:01.549Z,999.84
2018-02-03T11:15:01.565Z,999.85
2018-02-03T11:16:01.581Z,999.83
2018-02-03T11:17:01.597Z,999.86
2018-02-03T11:18:01.613Z,999.77
2018-02-03T11:19:01.629Z,999.77
2018-02-03T11:20:01.646Z,999.76
2018-02-03T11:21:01.663Z,999.70
2018-02-03T11:22:01.680Z,999.71
2018-02-03T11:23:01.696Z,999.71
2018-02-03T11:24:01.712Z,999.70
2018-02-03T11:25:01.730Z,999.69
2018-02-03T11:26:01.749Z,999.68
2018-02-03T11:27:01.763Z,999.69
2018-02-03T11:28:01.780Z,999.70
2018-02-03T11:29:01.800Z,999.69
2018-02-03T11:30:01.816Z,999.64
2018-02-03T11:31:01.831Z,999.65
2018-02-03T11:32:01.847Z,999.63
2018-02-03T11:33:01.864Z,999.60
2018-02-03T11:34:01.881Z,999.61
2018-02-03T11:35:01.901Z,999.58
2018-02-03T11:36:01.914Z,999.57
2018-02-03T11:37:01.931Z,999.56
2018-02-03T11:38:01.949Z,999.52
2018-02-03T11:39:01.964Z,999.60
2018-02-03T11:40:01.981Z,999.50
2018-02-03T11:41:01.998Z,999.51
2018-02-03T11:42:02.021Z,999.52
2018-02-03T11:43:02.040Z,999.54
2018-02-03T11:44:02.055Z,999.51
2018-02-03T11:45:02.095Z,999.50
2018-02-03T11:46:02.083Z,999.50
2018-02-03T11:47:02.099Z,999.46
2018-02-03T11:48:02.116Z,999.46
2018-02-03T11:49:02.133Z,999.44
2018-02-03T11:50:02.150Z,999.44
2018-02-03T11:51:02.168Z,999.43
2018-02-03T11:52:02.183Z,999.45
2018-02-03T11:53:02.204Z,999.45
2018-02-03T11:54:02.218Z,999.44
2018-02-03T11:55:02.233Z,999.46
2018-02-03T11:56:02.251Z,999.43
2018-02-03T11:57:02.268Z,999.43
2018-02-03T11:58:02.285Z,999.44
2018-02-03T11:59:02.301Z,999.44
2018-02-03T12:00:02.318Z,999.43
2018-02-03T12:01:02.336Z,999.45
2018-02-03T12:02:02.353Z,999.42
2018-02-03T12:03:02.369Z,999.49
2018-02-03T12:04:02.386Z,999.43
2018-02-03T12:05:02.404Z,999.47
2018-02-03T12:06:02.420Z,999.50
2018-02-03T12:07:02.438Z,999.44
2018-02-03T12:08:02.454Z,999.45
2018-02-03T12:09:02.471Z,999.43